sensor_id;sensor_type;location;lat;lon;timestamp;pressure;altitude;pressure_sealevel;temperature;humidity
30021;BME280;16861;52.294;7.760;2023-07-13T00:01:31;99610.31;;;19.96;51.97
30021;BME280;16861;52.294;7.760;2023-07-13T00:03:59;99608.94;;;19.91;51.87
30021;BME280;16861;52.294;7.760;2023-07-13T00:06:26;99606.44;;;19.90;52.03
30021;BME280;16861;52.294;7.760;2023-07-13T00:08:56;99605.91;;;19.86;51.86
30021;BME280;16861;52.294;7.760;2023-07-13T00:11:23;99611.53;;;19.83;52.25
30021;BME280;16861;52.294;7.760;2023-07-13T00:13:49;99619.69;;;19.82;52.38
30021;BME280;16861;52.294;7.760;2023-07-13T00:16:15;99619.84;;;19.80;52.38
30021;BME280;16861;52.294;7.760;2023-07-13T00:18:42;99624.50;;;19.78;52.42
30021;BME280;16861;52.294;7.760;2023-07-13T00:21:08;99629.00;;;19.77;52.38
30021;BME280;16861;52.294;7.760;2023-07-13T00:23:36;99619.47;;;19.75;52.93
30021;BME280;16861;52.294;7.760;2023-07-13T00:26:05;99623.13;;;19.74;52.70
30021;BME280;16861;52.294;7.760;2023-07-13T00:28:33;99626.81;;;19.73;52.64
30021;BME280;16861;52.294;7.760;2023-07-13T00:30:59;99621.47;;;19.73;52.94
30021;BME280;16861;52.294;7.760;2023-07-13T00:33:28;99624.28;;;19.71;52.64
30021;BME280;16861;52.294;7.760;2023-07-13T00:35:55;99622.75;;;19.69;52.64
30021;BME280;16861;52.294;7.760;2023-07-13T00:38:22;99624.56;;;19.68;52.79
30021;BME280;16861;52.294;7.760;2023-07-13T00:40:49;99632.72;;;19.66;52.45
30021;BME280;16861;52.294;7.760;2023-07-13T00:43:21;99626.84;;;19.63;52.58
30021;BME280;16861;52.294;7.760;2023-07-13T00:48:18;99629.97;;;19.58;52.59
30021;BME280;16861;52.294;7.760;2023-07-13T00:50:48;99630.25;;;19.55;52.79
30021;BME280;16861;52.294;7.760;2023-07-13T00:53:17;99631.25;;;19.54;52.75
30021;BME280;16861;52.294;7.760;2023-07-13T00:55:44;99630.56;;;19.52;52.78
30021;BME280;16861;52.294;7.760;2023-07-13T00:58:10;99628.03;;;19.50;52.73
30021;BME280;16861;52.294;7.760;2023-07-13T01:00:38;99628.34;;;19.47;53.07
30021;BME280;16861;52.294;7.760;2023-07-13T01:03:05;99628.34;;;19.47;52.98
30021;BME280;16861;52.294;7.760;2023-07-13T01:05:33;99631.16;;;19.46;52.98
30021;BME280;16861;52.294;7.760;2023-07-13T01:08:01;99625.97;;;19.44;53.03
30021;BME280;16861;52.294;7.760;2023-07-13T01:10:28;99619.09;;;19.42;53.14
30021;BME280;16861;52.294;7.760;2023-07-13T01:12:54;99626.28;;;19.41;53.47
30021;BME280;16861;52.294;7.760;2023-07-13T01:15:41;99618.84;;;19.35;53.27
30021;BME280;16861;52.294;7.760;2023-07-13T01:18:15;99626.72;;;19.36;53.22
30021;BME280;16861;52.294;7.760;2023-07-13T01:23:18;99619.00;;;19.33;53.09
30021;BME280;16861;52.294;7.760;2023-07-13T01:25:45;99627.31;;;19.30;53.23
30021;BME280;16861;52.294;7.760;2023-07-13T01:28:11;99615.94;;;19.28;53.38
30021;BME280;16861;52.294;7.760;2023-07-13T01:30:39;99609.06;;;19.25;53.30
30021;BME280;16861;52.294;7.760;2023-07-13T01:33:07;99606.69;;;19.22;53.49
30021;BME280;16861;52.294;7.760;2023-07-13T01:35:34;99604.19;;;19.21;53.37
30021;BME280;16861;52.294;7.760;2023-07-13T01:38:00;99607.13;;;19.18;53.66
30021;BME280;16861;52.294;7.760;2023-07-13T01:40:29;99609.09;;;19.16;53.95
30021;BME280;16861;52.294;7.760;2023-07-13T01:42:56;99603.22;;;19.12;53.97
30021;BME280;16861;52.294;7.760;2023-07-13T01:45:24;99614.03;;;19.10;54.10
30021;BME280;16861;52.294;7.760;2023-07-13T01:47:50;99610.84;;;19.07;54.13
30021;BME280;16861;52.294;7.760;2023-07-13T01:50:17;99607.59;;;19.03;54.30
30021;BME280;16861;52.294;7.760;2023-07-13T01:52:43;99601.56;;;19.01;54.24
30021;BME280;16861;52.294;7.760;2023-07-13T01:55:10;99592.03;;;18.98;54.34
30021;BME280;16861;52.294;7.760;2023-07-13T01:57:36;99599.34;;;18.96;54.58
30021;BME280;16861;52.294;7.760;2023-07-13T02:00:05;99612.81;;;18.95;54.46
30021;BME280;16861;52.294;7.760;2023-07-13T02:02:32;99602.44;;;18.92;54.44
30021;BME280;16861;52.294;7.760;2023-07-13T02:04:59;99599.91;;;18.90;54.43
30021;BME280;16861;52.294;7.760;2023-07-13T02:07:25;99613.53;;;18.87;54.68
30021;BME280;16861;52.294;7.760;2023-07-13T02:09:52;99600.38;;;18.85;54.64
30021;BME280;16861;52.294;7.760;2023-07-13T02:12:18;99608.66;;;18.82;54.99
30021;BME280;16861;52.294;7.760;2023-07-13T02:14:45;99608.94;;;18.79;54.83
30021;BME280;16861;52.294;7.760;2023-07-13T02:17:13;99614.25;;;18.79;55.13
30021;BME280;16861;52.294;7.760;2023-07-13T02:19:39;99604.72;;;18.77;55.47
30021;BME280;16861;52.294;7.760;2023-07-13T02:22:06;99618.91;;;18.77;55.35
30021;BME280;16861;52.294;7.760;2023-07-13T02:24:32;99622.53;;;18.76;55.20
30021;BME280;16861;52.294;7.760;2023-07-13T02:26:59;99624.25;;;18.77;55.47
30021;BME280;16861;52.294;7.760;2023-07-13T02:29:25;99618.91;;;18.77;55.67
30021;BME280;16861;52.294;7.760;2023-07-13T02:31:52;99625.22;;;18.76;55.01
30021;BME280;16861;52.294;7.760;2023-07-13T02:34:18;99620.03;;;18.74;55.69
30021;BME280;16861;52.294;7.760;2023-07-13T02:36:45;99614.00;;;18.72;55.96
30021;BME280;16861;52.294;7.760;2023-07-13T02:39:12;99614.00;;;18.72;55.61
30021;BME280;16861;52.294;7.760;2023-07-13T02:44:26;99619.75;;;18.68;55.78
30021;BME280;16861;52.294;7.760;2023-07-13T02:46:53;99620.88;;;18.65;55.62
30021;BME280;16861;52.294;7.760;2023-07-13T02:49:19;99623.72;;;18.64;55.70
30021;BME280;16861;52.294;7.760;2023-07-13T02:51:46;99615.16;;;18.60;55.87
30021;BME280;16861;52.294;7.760;2023-07-13T02:54:13;99614.59;;;18.56;56.14
30021;BME280;16861;52.294;7.760;2023-07-13T02:56:40;99621.88;;;18.54;55.97
30021;BME280;16861;52.294;7.760;2023-07-13T02:59:07;99622.31;;;18.49;55.82
30021;BME280;16861;52.294;7.760;2023-07-13T03:01:34;99616.41;;;18.46;56.35
30021;BME280;16861;52.294;7.760;2023-07-13T03:04:02;99622.19;;;18.41;56.21
30021;BME280;16861;52.294;7.760;2023-07-13T03:06:31;99622.47;;;18.38;56.25
30021;BME280;16861;52.294;7.760;2023-07-13T03:08:58;99626.97;;;18.38;56.19
30021;BME280;16861;52.294;7.760;2023-07-13T03:11:26;99628.78;;;18.37;56.37
30021;BME280;16861;52.294;7.760;2023-07-13T03:13:55;99621.94;;;18.34;56.37
30021;BME280;16861;52.294;7.760;2023-07-13T03:16:22;99624.72;;;18.33;56.42
30021;BME280;16861;52.294;7.760;2023-07-13T03:18:49;99623.88;;;18.32;56.40
30021;BME280;16861;52.294;7.760;2023-07-13T03:21:16;99624.19;;;18.29;56.36
30021;BME280;16861;52.294;7.760;2023-07-13T03:23:43;99631.31;;;18.29;56.56
30021;BME280;16861;52.294;7.760;2023-07-13T03:26:12;99635.97;;;18.27;56.47
30021;BME280;16861;52.294;7.760;2023-07-13T03:28:40;99643.94;;;18.27;56.61
30021;BME280;16861;52.294;7.760;2023-07-13T03:31:10;99639.88;;;18.22;56.86
30021;BME280;16861;52.294;7.760;2023-07-13T03:33:37;99633.69;;;18.22;56.69
30021;BME280;16861;52.294;7.760;2023-07-13T03:36:06;99640.16;;;18.19;56.67
30021;BME280;16861;52.294;7.760;2023-07-13T03:38:33;99641.16;;;18.18;56.94
30021;BME280;16861;52.294;7.760;2023-07-13T03:41:00;99644.63;;;18.19;56.83
30021;BME280;16861;52.294;7.760;2023-07-13T03:43:27;99640.28;;;18.18;56.75
30021;BME280;16861;52.294;7.760;2023-07-13T03:45:54;99642.28;;;18.16;57.09
30021;BME280;16861;52.294;7.760;2023-07-13T03:48:20;99642.28;;;18.16;56.80
30021;BME280;16861;52.294;7.760;2023-07-13T03:50:47;99642.28;;;18.16;57.08
30021;BME280;16861;52.294;7.760;2023-07-13T03:53:15;99649.28;;;18.17;57.07
30021;BME280;16861;52.294;7.760;2023-07-13T03:55:42;99643.94;;;18.17;56.80
30021;BME280;16861;52.294;7.760;2023-07-13T03:58:39;99643.53;;;18.12;57.09
30021;BME280;16861;52.294;7.760;2023-07-13T04:01:08;99649.28;;;18.17;56.97
30021;BME280;16861;52.294;7.760;2023-07-13T04:03:36;99661.88;;;18.15;56.75
30021;BME280;16861;52.294;7.760;2023-07-13T04:06:04;99656.69;;;18.13;57.00
30021;BME280;16861;52.294;7.760;2023-07-13T04:08:33;99662.19;;;18.12;57.11
30021;BME280;16861;52.294;7.760;2023-07-13T04:11:01;99653.47;;;18.09;57.04
30021;BME280;16861;52.294;7.760;2023-07-13T04:13:28;99655.41;;;18.07;56.96
30021;BME280;16861;52.294;7.760;2023-07-13T04:15:55;99656.38;;;18.06;57.17
30021;BME280;16861;52.294;7.760;2023-07-13T04:18:22;99654.69;;;18.05;57.25
30021;BME280;16861;52.294;7.760;2023-07-13T04:20:49;99668.13;;;18.04;57.32
30021;BME280;16861;52.294;7.760;2023-07-13T04:23:17;99671.66;;;18.04;57.43
30021;BME280;16861;52.294;7.760;2023-07-13T04:25:45;99663.81;;;18.03;57.65
30021;BME280;16861;52.294;7.760;2023-07-13T04:28:12;99669.00;;;18.04;57.99
30021;BME280;16861;52.294;7.760;2023-07-13T04:30:39;99669.44;;;18.09;57.89
30021;BME280;16861;52.294;7.760;2023-07-13T04:33:06;99671.84;;;18.13;58.17
30021;BME280;16861;52.294;7.760;2023-07-13T04:35:32;99675.78;;;18.18;57.85
30021;BME280;16861;52.294;7.760;2023-07-13T04:37:59;99668.34;;;18.22;57.96
30021;BME280;16861;52.294;7.760;2023-07-13T04:40:27;99675.94;;;18.27;57.86
30021;BME280;16861;52.294;7.760;2023-07-13T04:42:54;99679.13;;;18.30;57.89
30021;BME280;16861;52.294;7.760;2023-07-13T04:45:20;99683.22;;;18.34;57.68
30021;BME280;16861;52.294;7.760;2023-07-13T04:47:47;99680.28;;;18.38;57.93
30021;BME280;16861;52.294;7.760;2023-07-13T04:50:14;99678.97;;;18.42;57.75
30021;BME280;16861;52.294;7.760;2023-07-13T04:52:52;99676.91;;;18.45;57.49
30021;BME280;16861;52.294;7.760;2023-07-13T04:55:20;99679.00;;;18.52;57.81
30021;BME280;16861;52.294;7.760;2023-07-13T04:57:47;99677.03;;;18.54;57.37
30021;BME280;16861;52.294;7.760;2023-07-13T05:00:13;99681.25;;;18.56;57.27
30021;BME280;16861;52.294;7.760;2023-07-13T05:02:44;99687.25;;;18.58;57.38
30021;BME280;16861;52.294;7.760;2023-07-13T05:05:12;99682.63;;;18.60;57.32
30021;BME280;16861;52.294;7.760;2023-07-13T05:07:39;99681.66;;;18.61;57.34
30021;BME280;16861;52.294;7.760;2023-07-13T05:10:06;99680.66;;;18.62;57.39
30021;BME280;16861;52.294;7.760;2023-07-13T05:12:33;99690.19;;;18.65;57.35
30021;BME280;16861;52.294;7.760;2023-07-13T05:15:01;99685.72;;;18.66;57.75
30021;BME280;16861;52.294;7.760;2023-07-13T05:17:28;99690.91;;;18.67;57.50
30021;BME280;16861;52.294;7.760;2023-07-13T05:19:55;99689.06;;;18.68;57.48
30021;BME280;16861;52.294;7.760;2023-07-13T05:22:21;99687.13;;;18.70;57.68
30021;BME280;16861;52.294;7.760;2023-07-13T05:24:48;99689.50;;;18.73;57.82
30021;BME280;16861;52.294;7.760;2023-07-13T05:27:15;99696.25;;;18.77;57.69
30021;BME280;16861;52.294;7.760;2023-07-13T05:29:41;99687.94;;;18.80;57.66
30021;BME280;16861;52.294;7.760;2023-07-13T05:32:08;99688.66;;;18.82;57.38
30021;BME280;16861;52.294;7.760;2023-07-13T05:34:35;99693.00;;;18.83;57.26
30021;BME280;16861;52.294;7.760;2023-07-13T05:37:01;99687.66;;;18.83;57.23
30021;BME280;16861;52.294;7.760;2023-07-13T05:39:28;99691.19;;;18.84;57.40
30021;BME280;16861;52.294;7.760;2023-07-13T05:41:55;99698.31;;;18.83;57.39
30021;BME280;16861;52.294;7.760;2023-07-13T05:44:22;99700.13;;;18.83;57.36
30021;BME280;16861;52.294;7.760;2023-07-13T05:46:48;99704.66;;;18.82;57.46
30021;BME280;16861;52.294;7.760;2023-07-13T05:49:15;99711.94;;;18.80;57.42
30021;BME280;16861;52.294;7.760;2023-07-13T05:51:42;99716.44;;;18.80;57.87
30021;BME280;16861;52.294;7.760;2023-07-13T05:54:09;99713.78;;;18.80;57.83
30021;BME280;16861;52.294;7.760;2023-07-13T05:56:36;99715.59;;;18.79;58.09
30021;BME280;16861;52.294;7.760;2023-07-13T05:59:02;99725.25;;;18.80;58.51
30021;BME280;16861;52.294;7.760;2023-07-13T06:01:30;99725.00;;;18.83;58.54
30021;BME280;16861;52.294;7.760;2023-07-13T06:03:57;99721.19;;;18.86;58.58
30021;BME280;16861;52.294;7.760;2023-07-13T06:06:24;99722.59;;;18.90;58.69
30021;BME280;16861;52.294;7.760;2023-07-13T06:08:51;99726.66;;;18.94;58.65
30021;BME280;16861;52.294;7.760;2023-07-13T06:11:21;99738.03;;;18.96;58.38
30021;BME280;16861;52.294;7.760;2023-07-13T06:13:48;99736.75;;;19.00;58.69
30021;BME280;16861;52.294;7.760;2023-07-13T06:16:15;99742.66;;;19.04;59.06
30021;BME280;16861;52.294;7.760;2023-07-13T06:18:42;99734.09;;;19.10;58.70
30021;BME280;16861;52.294;7.760;2023-07-13T06:21:17;99742.81;;;19.12;59.21
30021;BME280;16861;52.294;7.760;2023-07-13T06:23:45;99743.06;;;19.19;58.95
30021;BME280;16861;52.294;7.760;2023-07-13T06:26:14;99744.47;;;19.23;58.69
30021;BME280;16861;52.294;7.760;2023-07-13T06:28:41;99733.50;;;19.26;58.56
30021;BME280;16861;52.294;7.760;2023-07-13T06:31:09;99746.41;;;19.31;58.73
30021;BME280;16861;52.294;7.760;2023-07-13T06:33:37;99747.81;;;19.35;58.52
30021;BME280;16861;52.294;7.760;2023-07-13T06:36:05;99747.53;;;19.38;58.97
30021;BME280;16861;52.294;7.760;2023-07-13T06:38:32;99748.91;;;19.43;59.04
30021;BME280;16861;52.294;7.760;2023-07-13T06:40:59;99754.66;;;19.48;59.10
30021;BME280;16861;52.294;7.760;2023-07-13T06:43:25;99760.53;;;19.51;59.26
30021;BME280;16861;52.294;7.760;2023-07-13T06:45:54;99760.09;;;19.56;59.10
30021;BME280;16861;52.294;7.760;2023-07-13T06:48:22;99751.50;;;19.62;59.08
30021;BME280;16861;52.294;7.760;2023-07-13T06:50:49;99751.06;;;19.67;58.83
30021;BME280;16861;52.294;7.760;2023-07-13T06:53:18;99756.81;;;19.72;58.97
30021;BME280;16861;52.294;7.760;2023-07-13T06:55:46;99755.38;;;19.78;59.13
30021;BME280;16861;52.294;7.760;2023-07-13T06:58:13;99755.78;;;19.83;59.14
30021;BME280;16861;52.294;7.760;2023-07-13T07:00:39;99762.34;;;19.89;58.76
30021;BME280;16861;52.294;7.760;2023-07-13T07:03:09;99752.22;;;19.92;58.84
30021;BME280;16861;52.294;7.760;2023-07-13T07:05:36;99758.81;;;19.98;59.09
30021;BME280;16861;52.294;7.760;2023-07-13T07:08:04;99758.22;;;20.04;59.27
30021;BME280;16861;52.294;7.760;2023-07-13T07:10:31;99761.97;;;20.12;59.39
30021;BME280;16861;52.294;7.760;2023-07-13T07:12:58;99766.56;;;20.20;59.11
30021;BME280;16861;52.294;7.760;2023-07-13T07:15:25;99769.47;;;20.26;58.90
30021;BME280;16861;52.294;7.760;2023-07-13T07:17:52;99768.75;;;20.34;59.02
30021;BME280;16861;52.294;7.760;2023-07-13T07:20:19;99767.13;;;20.41;58.95
30021;BME280;16861;52.294;7.760;2023-07-13T07:22:47;99759.19;;;20.50;58.55
30021;BME280;16861;52.294;7.760;2023-07-13T07:25:14;99777.31;;;20.56;58.62
30021;BME280;16861;52.294;7.760;2023-07-13T07:27:41;99773.00;;;20.63;58.76
30021;BME280;16861;52.294;7.760;2023-07-13T07:30:11;99775.91;;;20.70;58.41
30021;BME280;16861;52.294;7.760;2023-07-13T07:32:41;99770.63;;;20.78;58.40
30021;BME280;16861;52.294;7.760;2023-07-13T07:35:23;99776.22;;;20.85;58.03
30021;BME280;16861;52.294;7.760;2023-07-13T07:37:49;99770.28;;;20.91;58.07
30021;BME280;16861;52.294;7.760;2023-07-13T07:40:17;99769.66;;;20.98;57.96
30021;BME280;16861;52.294;7.760;2023-07-13T07:42:47;99769.72;;;21.06;58.07
30021;BME280;16861;52.294;7.760;2023-07-13T07:45:14;99775.13;;;21.14;58.21
30021;BME280;16861;52.294;7.760;2023-07-13T07:47:41;99775.03;;;21.24;58.10
30021;BME280;16861;52.294;7.760;2023-07-13T07:50:08;99777.59;;;21.34;58.02
30021;BME280;16861;52.294;7.760;2023-07-13T07:52:35;99777.34;;;21.45;57.95
30021;BME280;16861;52.294;7.760;2023-07-13T07:55:04;99779.75;;;21.57;57.72
30021;BME280;16861;52.294;7.760;2023-07-13T07:57:34;99776.78;;;21.68;57.27
30021;BME280;16861;52.294;7.760;2023-07-13T08:00:23;99778.22;;;21.81;56.26
30021;BME280;16861;52.294;7.760;2023-07-13T08:02:53;99789.69;;;21.91;57.06
30021;BME280;16861;52.294;7.760;2023-07-13T08:05:22;99785.47;;;21.97;56.98
30021;BME280;16861;52.294;7.760;2023-07-13T08:08:04;99789.91;;;22.06;56.80
30021;BME280;16861;52.294;7.760;2023-07-13T08:10:31;99790.09;;;22.13;56.47
30021;BME280;16861;52.294;7.760;2023-07-13T08:12:58;99782.41;;;22.18;56.19
30021;BME280;16861;52.294;7.760;2023-07-13T08:15:27;99787.09;;;22.24;56.14
30021;BME280;16861;52.294;7.760;2023-07-13T08:17:54;99784.59;;;22.31;56.26
30021;BME280;16861;52.294;7.760;2023-07-13T08:20:23;99775.91;;;22.37;56.20
30021;BME280;16861;52.294;7.760;2023-07-13T08:22:50;99784.63;;;22.48;55.74
30021;BME280;16861;52.294;7.760;2023-07-13T08:25:16;99782.00;;;22.56;55.47
30021;BME280;16861;52.294;7.760;2023-07-13T08:27:43;99780.34;;;22.63;55.10
30021;BME280;16861;52.294;7.760;2023-07-13T08:30:10;99791.41;;;22.69;55.29
30021;BME280;16861;52.294;7.760;2023-07-13T08:32:37;99785.38;;;22.75;55.33
30021;BME280;16861;52.294;7.760;2023-07-13T08:35:05;99788.38;;;22.80;55.10
30021;BME280;16861;52.294;7.760;2023-07-13T08:37:32;99784.03;;;22.87;54.93
30021;BME280;16861;52.294;7.760;2023-07-13T08:39:58;99793.25;;;22.93;54.22
30021;BME280;16861;52.294;7.760;2023-07-13T08:42:31;99795.78;;;22.95;53.48
30021;BME280;16861;52.294;7.760;2023-07-13T08:45:42;99783.38;;;22.94;53.59
30021;BME280;16861;52.294;7.760;2023-07-13T08:48:18;99793.91;;;23.03;54.32
30021;BME280;16861;52.294;7.760;2023-07-13T08:50:56;99800.13;;;23.12;53.28
30021;BME280;16861;52.294;7.760;2023-07-13T08:53:34;99791.75;;;23.15;53.26
30021;BME280;16861;52.294;7.760;2023-07-13T08:56:11;99784.84;;;23.21;53.31
30021;BME280;16861;52.294;7.760;2023-07-13T08:58:42;99785.69;;;23.30;53.62
30021;BME280;16861;52.294;7.760;2023-07-13T09:01:28;99801.63;;;23.32;53.05
30021;BME280;16861;52.294;7.760;2023-07-13T09:04:08;99794.56;;;23.39;51.67
30021;BME280;16861;52.294;7.760;2023-07-13T09:09:20;99785.88;;;23.37;51.79
30021;BME280;16861;52.294;7.760;2023-07-13T09:12:11;99791.56;;;23.34;53.04
30021;BME280;16861;52.294;7.760;2023-07-13T09:14:47;99794.09;;;23.35;52.92
30021;BME280;16861;52.294;7.760;2023-07-13T09:17:29;99793.25;;;23.35;52.51
30021;BME280;16861;52.294;7.760;2023-07-13T09:20:12;99789.56;;;23.36;53.25
30021;BME280;16861;52.294;7.760;2023-07-13T09:22:43;99792.56;;;23.41;53.86
30021;BME280;16861;52.294;7.760;2023-07-13T09:27:42;99791.88;;;23.47;53.60
30021;BME280;16861;52.294;7.760;2023-07-13T09:32:43;99793.22;;;23.51;51.72
30021;BME280;16861;52.294;7.760;2023-07-13T09:35:12;99799.09;;;23.55;52.23
30021;BME280;16861;52.294;7.760;2023-07-13T09:37:43;99789.84;;;23.58;52.60
30021;BME280;16861;52.294;7.760;2023-07-13T09:40:21;99800.22;;;23.61;51.49
30021;BME280;16861;52.294;7.760;2023-07-13T09:42:53;99800.06;;;23.71;52.01
30021;BME280;16861;52.294;7.760;2023-07-13T09:45:32;99797.03;;;23.74;51.37
30021;BME280;16861;52.294;7.760;2023-07-13T09:48:05;99799.53;;;23.84;51.82
30021;BME280;16861;52.294;7.760;2023-07-13T09:50:32;99793.25;;;23.91;51.90
30021;BME280;16861;52.294;7.760;2023-07-13T09:53:01;99795.75;;;24.01;52.46
30021;BME280;16861;52.294;7.760;2023-07-13T09:57:57;99797.34;;;24.27;51.92
30021;BME280;16861;52.294;7.760;2023-07-13T10:00:28;99806.47;;;24.41;50.54
30021;BME280;16861;52.294;7.760;2023-07-13T10:05:41;99809.69;;;24.68;50.23
30021;BME280;16861;52.294;7.760;2023-07-13T10:10:52;99800.97;;;24.90;49.02
30021;BME280;16861;52.294;7.760;2023-07-13T10:13:26;99814.72;;;24.95;50.39
30021;BME280;16861;52.294;7.760;2023-07-13T10:15:55;99804.06;;;25.02;49.57
30021;BME280;16861;52.294;7.760;2023-07-13T10:18:24;99809.00;;;24.98;48.68
30021;BME280;16861;52.294;7.760;2023-07-13T10:21:13;99816.00;;;24.84;48.85
30021;BME280;16861;52.294;7.760;2023-07-13T10:23:47;99805.38;;;24.82;49.59
30021;BME280;16861;52.294;7.760;2023-07-13T10:26:20;99812.63;;;24.82;49.58
30021;BME280;16861;52.294;7.760;2023-07-13T10:28:53;99814.97;;;24.85;49.24
30021;BME280;16861;52.294;7.760;2023-07-13T10:31:21;99818.78;;;24.91;50.66
30021;BME280;16861;52.294;7.760;2023-07-13T10:33:48;99813.28;;;25.07;50.74
30021;BME280;16861;52.294;7.760;2023-07-13T10:36:30;99820.09;;;25.18;49.87
30021;BME280;16861;52.294;7.760;2023-07-13T10:38:59;99811.00;;;25.34;49.85
30021;BME280;16861;52.294;7.760;2023-07-13T10:41:27;99816.41;;;25.49;49.94
30021;BME280;16861;52.294;7.760;2023-07-13T10:43:56;99806.72;;;25.63;49.45
30021;BME280;16861;52.294;7.760;2023-07-13T10:46:26;99820.81;;;25.81;49.49
30021;BME280;16861;52.294;7.760;2023-07-13T10:48:57;99812.53;;;25.97;50.48
30021;BME280;16861;52.294;7.760;2023-07-13T10:51:26;99819.78;;;26.27;49.83
30021;BME280;16861;52.294;7.760;2023-07-13T10:54:16;99814.22;;;26.50;48.66
30021;BME280;16861;52.294;7.760;2023-07-13T10:56:46;99814.56;;;26.84;50.75
30021;BME280;16861;52.294;7.760;2023-07-13T10:59:18;99827.97;;;27.21;48.31
30021;BME280;16861;52.294;7.760;2023-07-13T11:02:09;99829.16;;;27.40;47.84
30021;BME280;16861;52.294;7.760;2023-07-13T11:04:43;99825.41;;;27.63;46.63
30021;BME280;16861;52.294;7.760;2023-07-13T11:07:19;99819.03;;;27.78;44.18
30021;BME280;16861;52.294;7.760;2023-07-13T11:09:52;99829.69;;;27.86;44.34
30021;BME280;16861;52.294;7.760;2023-07-13T11:17:37;99822.09;;;27.68;44.33
30021;BME280;16861;52.294;7.760;2023-07-13T11:22:48;99812.03;;;27.55;43.24
30021;BME280;16861;52.294;7.760;2023-07-13T11:25:31;99818.34;;;27.40;43.00
30021;BME280;16861;52.294;7.760;2023-07-13T11:30:44;99821.75;;;27.21;43.69
30021;BME280;16861;52.294;7.760;2023-07-13T11:33:19;99827.34;;;27.19;44.19
30021;BME280;16861;52.294;7.760;2023-07-13T11:36:14;99812.22;;;27.25;44.16
30021;BME280;16861;52.294;7.760;2023-07-13T11:38:47;99820.53;;;27.52;44.72
30021;BME280;16861;52.294;7.760;2023-07-13T11:41:21;99812.97;;;27.76;44.31
30021;BME280;16861;52.294;7.760;2023-07-13T11:43:53;99815.59;;;27.97;42.76
30021;BME280;16861;52.294;7.760;2023-07-13T11:46:22;99816.50;;;28.18;42.83
30021;BME280;16861;52.294;7.760;2023-07-13T11:48:50;99807.66;;;28.38;42.77
30021;BME280;16861;52.294;7.760;2023-07-13T11:51:22;99822.50;;;28.56;41.73
30021;BME280;16861;52.294;7.760;2023-07-13T11:53:51;99818.97;;;28.75;42.01
30021;BME280;16861;52.294;7.760;2023-07-13T11:56:20;99815.06;;;28.98;41.53
30021;BME280;16861;52.294;7.760;2023-07-13T11:58:51;99809.44;;;29.20;41.29
30021;BME280;16861;52.294;7.760;2023-07-13T12:01:21;99817.13;;;29.37;39.90
30021;BME280;16861;52.294;7.760;2023-07-13T12:03:48;99824.22;;;29.38;39.66
30021;BME280;16861;52.294;7.760;2023-07-13T12:06:27;99820.50;;;29.19;38.69
30021;BME280;16861;52.294;7.760;2023-07-13T12:09:01;99825.28;;;28.96;37.52
30021;BME280;16861;52.294;7.760;2023-07-13T12:11:30;99823.56;;;28.68;38.60
30021;BME280;16861;52.294;7.760;2023-07-13T12:14:01;99837.00;;;28.34;39.08
30021;BME280;16861;52.294;7.760;2023-07-13T12:16:32;99831.19;;;27.95;38.74
30021;BME280;16861;52.294;7.760;2023-07-13T12:19:00;99841.00;;;27.61;38.96
30021;BME280;16861;52.294;7.760;2023-07-13T12:21:38;99847.50;;;27.16;39.92
30021;BME280;16861;52.294;7.760;2023-07-13T12:24:14;99854.34;;;26.75;39.96
30021;BME280;16861;52.294;7.760;2023-07-13T12:26:41;99896.34;;;26.41;41.31
30021;BME280;16861;52.294;7.760;2023-07-13T12:29:15;99921.53;;;25.88;42.82
30021;BME280;16861;52.294;7.760;2023-07-13T12:31:47;99906.22;;;25.27;43.41
30021;BME280;16861;52.294;7.760;2023-07-13T12:34:17;99910.66;;;24.64;43.70
30021;BME280;16861;52.294;7.760;2023-07-13T12:37:10;99910.34;;;23.94;45.81
30021;BME280;16861;52.294;7.760;2023-07-13T12:39:44;99905.22;;;23.34;48.20
30021;BME280;16861;52.294;7.760;2023-07-13T12:42:27;99898.78;;;22.85;48.46
30021;BME280;16861;52.294;7.760;2023-07-13T12:45:01;99885.75;;;22.56;49.56
30021;BME280;16861;52.294;7.760;2023-07-13T12:47:28;99880.66;;;22.36;50.24
30021;BME280;16861;52.294;7.760;2023-07-13T12:49:57;99875.56;;;22.24;52.32
30021;BME280;16861;52.294;7.760;2023-07-13T12:52:30;99891.50;;;22.26;53.73
30021;BME280;16861;52.294;7.760;2023-07-13T12:55:02;99884.34;;;22.43;55.75
30021;BME280;16861;52.294;7.760;2023-07-13T12:57:32;99883.28;;;22.71;56.42
30021;BME280;16861;52.294;7.760;2023-07-13T13:00:04;99874.44;;;23.03;56.34
30021;BME280;16861;52.294;7.760;2023-07-13T13:02:37;99889.13;;;23.34;55.86
30021;BME280;16861;52.294;7.760;2023-07-13T13:05:04;99895.47;;;23.58;54.60
30021;BME280;16861;52.294;7.760;2023-07-13T13:07:31;99886.19;;;23.77;53.54
30021;BME280;16861;52.294;7.760;2023-07-13T13:09:57;99888.69;;;23.95;53.50
30021;BME280;16861;52.294;7.760;2023-07-13T13:12:24;99888.13;;;24.08;53.36
30021;BME280;16861;52.294;7.760;2023-07-13T13:14:52;99898.56;;;24.20;53.12
30021;BME280;16861;52.294;7.760;2023-07-13T13:17:21;99891.81;;;24.24;52.42
30021;BME280;16861;52.294;7.760;2023-07-13T13:19:50;99923.06;;;24.25;52.44
30021;BME280;16861;52.294;7.760;2023-07-13T13:22:19;99939.91;;;24.19;52.16
30021;BME280;16861;52.294;7.760;2023-07-13T13:24:46;99938.59;;;23.98;50.90
30021;BME280;16861;52.294;7.760;2023-07-13T13:27:22;99930.22;;;23.60;51.17
30021;BME280;16861;52.294;7.760;2023-07-13T13:29:52;99938.59;;;23.23;52.50
30021;BME280;16861;52.294;7.760;2023-07-13T13:32:19;99930.78;;;22.87;52.76
30021;BME280;16861;52.294;7.760;2023-07-13T13:34:45;99942.09;;;22.56;54.11
30021;BME280;16861;52.294;7.760;2023-07-13T13:37:20;99946.97;;;22.25;56.54
30021;BME280;16861;52.294;7.760;2023-07-13T13:39:50;99937.53;;;22.13;56.95
30021;BME280;16861;52.294;7.760;2023-07-13T13:42:33;99938.31;;;22.05;57.63
30021;BME280;16861;52.294;7.760;2023-07-13T13:45:00;99955.25;;;22.06;58.62
30021;BME280;16861;52.294;7.760;2023-07-13T13:47:32;99946.03;;;22.08;60.25